sensor_id;sensor_type;location;lat;lon;timestamp;temperature;humidity
41944;DHT22;27636;52.610;13.244;2022-09-24T00:04:18;9.50;99.90
41944;DHT22;27636;52.610;13.244;2022-09-24T00:09:22;9.40;99.90
41944;DHT22;27636;52.610;13.244;2022-09-24T00:14:26;9.20;99.90
41944;DHT22;27636;52.610;13.244;2022-09-24T00:19:29;9.30;99.90
41944;DHT22;27636;52.610;13.244;2022-09-24T00:24:32;9.20;99.90
41944;DHT22;27636;52.610;13.244;2022-09-24T00:29:55;9.10;99.90
41944;DHT22;27636;52.610;13.244;2022-09-24T00:34:58;9.10;99.90
41944;DHT22;27636;52.610;13.244;2022-09-24T00:40:01;9.00;99.90
41944;DHT22;27636;52.610;13.244;2022-09-24T00:45:08;9.00;99.90
41944;DHT22;27636;52.610;13.244;2022-09-24T00:50:16;9.00;99.90
41944;DHT22;27636;52.610;13.244;2022-09-24T00:55:20;9.00;99.90
41944;DHT22;27636;52.610;13.244;2022-09-24T01:00:26;9.10;99.90
41944;DHT22;27636;52.610;13.244;2022-09-24T01:05:30;9.10;99.90
41944;DHT22;27636;52.610;13.244;2022-09-24T01:10:43;9.10;99.90
41944;DHT22;27636;52.610;13.244;2022-09-24T01:15:56;9.20;99.90
41944;DHT22;27636;52.610;13.244;2022-09-24T01:21:22;9.30;99.90
41944;DHT22;27636;52.610;13.244;2022-09-24T01:26:42;9.30;99.90
41944;DHT22;27636;52.610;13.244;2022-09-24T01:31:54;9.50;99.90
41944;DHT22;27636;52.610;13.244;2022-09-24T01:37:02;9.40;99.90
41944;DHT22;27636;52.610;13.244;2022-09-24T01:42:08;9.40;99.90
41944;DHT22;27636;52.610;13.244;2022-09-24T01:47:16;9.40;99.90
41944;DHT22;27636;52.610;13.244;2022-09-24T01:52:24;9.50;99.90
41944;DHT22;27636;52.610;13.244;2022-09-24T01:57:31;9.60;99.90
41944;DHT22;27636;52.610;13.244;2022-09-24T02:02:40;9.60;99.90
41944;DHT22;27636;52.610;13.244;2022-09-24T02:07:51;9.70;99.90
41944;DHT22;27636;52.610;13.244;2022-09-24T02:12:58;9.80;99.90
41944;DHT22;27636;52.610;13.244;2022-09-24T02:18:08;9.90;99.90
41944;DHT22;27636;52.610;13.244;2022-09-24T02:23:13;9.80;99.90
41944;DHT22;27636;52.610;13.244;2022-09-24T02:28:17;9.80;99.90
41944;DHT22;27636;52.610;13.244;2022-09-24T02:33:23;9.90;99.90
41944;DHT22;27636;52.610;13.244;2022-09-24T02:38:46;9.90;99.90
41944;DHT22;27636;52.610;13.244;2022-09-24T02:43:49;9.80;99.90
41944;DHT22;27636;52.610;13.244;2022-09-24T02:48:53;9.90;99.90
41944;DHT22;27636;52.610;13.244;2022-09-24T02:53:56;9.90;99.90
41944;DHT22;27636;52.610;13.244;2022-09-24T02:59:00;9.80;99.90
41944;DHT22;27636;52.610;13.244;2022-09-24T03:04:06;9.80;99.90
41944;DHT22;27636;52.610;13.244;2022-09-24T03:09:11;9.70;99.90
41944;DHT22;27636;52.610;13.244;2022-09-24T03:14:14;9.70;99.90
41944;DHT22;27636;52.610;13.244;2022-09-24T03:19:18;9.60;99.90
41944;DHT22;27636;52.610;13.244;2022-09-24T03:24:21;9.60;99.90
41944;DHT22;27636;52.610;13.244;2022-09-24T03:29:25;9.60;99.90
41944;DHT22;27636;52.610;13.244;2022-09-24T03:34:47;9.70;99.90
41944;DHT22;27636;52.610;13.244;2022-09-24T03:39:50;9.70;99.90
41944;DHT22;27636;52.610;13.244;2022-09-24T03:44:53;9.70;99.90
41944;DHT22;27636;52.610;13.244;2022-09-24T03:49:58;9.70;99.90
41944;DHT22;27636;52.610;13.244;2022-09-24T03:55:01;9.70;99.90
41944;DHT22;27636;52.610;13.244;2022-09-24T04:00:05;9.70;99.90
41944;DHT22;27636;52.610;13.244;2022-09-24T04:05:11;9.70;99.90
41944;DHT22;27636;52.610;13.244;2022-09-24T04:10:14;9.90;99.90
41944;DHT22;27636;52.610;13.244;2022-09-24T04:15:17;9.90;99.90
41944;DHT22;27636;52.610;13.244;2022-09-24T04:20:24;9.90;99.90
41944;DHT22;27636;52.610;13.244;2022-09-24T04:25:29;9.80;99.90
41944;DHT22;27636;52.610;13.244;2022-09-24T04:30:36;9.80;99.90
41944;DHT22;27636;52.610;13.244;2022-09-24T04:35:41;9.80;99.90
41944;DHT22;27636;52.610;13.244;2022-09-24T04:40:44;9.70;99.90
41944;DHT22;27636;52.610;13.244;2022-09-24T04:45:48;9.70;99.90
41944;DHT22;27636;52.610;13.244;2022-09-24T04:50:52;9.70;99.90
41944;DHT22;27636;52.610;13.244;2022-09-24T04:55:55;9.60;99.90
41944;DHT22;27636;52.610;13.244;2022-09-24T05:01:00;9.70;99.90
41944;DHT22;27636;52.610;13.244;2022-09-24T05:06:06;9.70;99.90
41944;DHT22;27636;52.610;13.244;2022-09-24T05:11:10;9.60;99.90
41944;DHT22;27636;52.610;13.244;2022-09-24T05:16:13;9.80;99.90
41944;DHT22;27636;52.610;13.244;2022-09-24T05:21:17;9.90;99.90
41944;DHT22;27636;52.610;13.244;2022-09-24T05:26:20;9.90;99.90
41944;DHT22;27636;52.610;13.244;2022-09-24T05:31:41;9.80;99.90
41944;DHT22;27636;52.610;13.244;2022-09-24T05:36:46;9.90;99.90
41944;DHT22;27636;52.610;13.244;2022-09-24T05:41:49;10.00;99.90
41944;DHT22;27636;52.610;13.244;2022-09-24T05:46:52;10.00;99.90
41944;DHT22;27636;52.610;13.244;2022-09-24T05:51:57;10.20;99.90
41944;DHT22;27636;52.610;13.244;2022-09-24T05:56:59;10.20;99.90
41944;DHT22;27636;52.610;13.244;2022-09-24T06:02:02;10.40;99.90
41944;DHT22;27636;52.610;13.244;2022-09-24T06:07:07;10.50;99.90
41944;DHT22;27636;52.610;13.244;2022-09-24T06:12:10;10.60;99.90
41944;DHT22;27636;52.610;13.244;2022-09-24T06:17:13;10.70;99.90
41944;DHT22;27636;52.610;13.244;2022-09-24T06:22:17;10.80;99.90
41944;DHT22;27636;52.610;13.244;2022-09-24T06:27:20;10.90;99.90
41944;DHT22;27636;52.610;13.244;2022-09-24T06:32:24;11.00;99.90
41944;DHT22;27636;52.610;13.244;2022-09-24T06:37:28;11.50;99.90
41944;DHT22;27636;52.610;13.244;2022-09-24T06:42:31;11.60;99.90
41944;DHT22;27636;52.610;13.244;2022-09-24T06:47:34;12.00;99.90
41944;DHT22;27636;52.610;13.244;2022-09-24T06:52:38;12.10;99.90
41944;DHT22;27636;52.610;13.244;2022-09-24T06:57:41;12.30;99.90
41944;DHT22;27636;52.610;13.244;2022-09-24T07:02:50;12.40;99.90
41944;DHT22;27636;52.610;13.244;2022-09-24T07:07:54;12.40;99.90
41944;DHT22;27636;52.610;13.244;2022-09-24T07:12:57;12.60;99.90
41944;DHT22;27636;52.610;13.244;2022-09-24T07:18:00;12.60;99.90
41944;DHT22;27636;52.610;13.244;2022-09-24T07:23:06;12.80;99.90
41944;DHT22;27636;52.610;13.244;2022-09-24T07:28:11;12.90;99.90
41944;DHT22;27636;52.610;13.244;2022-09-24T07:33:14;12.80;99.90
41944;DHT22;27636;52.610;13.244;2022-09-24T07:38:19;13.20;99.90
41944;DHT22;27636;52.610;13.244;2022-09-24T07:43:22;13.20;99.90
41944;DHT22;27636;52.610;13.244;2022-09-24T07:48:25;13.00;99.90
41944;DHT22;27636;52.610;13.244;2022-09-24T07:53:30;13.60;99.90
41944;DHT22;27636;52.610;13.244;2022-09-24T07:58:33;13.60;99.90
41944;DHT22;27636;52.610;13.244;2022-09-24T08:03:37;13.70;99.90
41944;DHT22;27636;52.610;13.244;2022-09-24T08:08:43;13.80;99.90
41944;DHT22;27636;52.610;13.244;2022-09-24T08:13:46;14.10;99.90
41944;DHT22;27636;52.610;13.244;2022-09-24T08:18:49;14.20;99.90
41944;DHT22;27636;52.610;13.244;2022-09-24T08:23:53;14.40;99.90
41944;DHT22;27636;52.610;13.244;2022-09-24T08:28:57;14.70;99.90
41944;DHT22;27636;52.610;13.244;2022-09-24T08:34:00;14.80;99.90
41944;DHT22;27636;52.610;13.244;2022-09-24T08:39:05;15.40;99.90
41944;DHT22;27636;52.610;13.244;2022-09-24T08:44:13;15.70;99.90
41944;DHT22;27636;52.610;13.244;2022-09-24T08:49:41;15.90;99.90
41944;DHT22;27636;52.610;13.244;2022-09-24T08:54:48;16.90;99.90
41944;DHT22;27636;52.610;13.244;2022-09-24T08:59:52;17.70;99.90
41944;DHT22;27636;52.610;13.244;2022-09-24T09:05:01;17.90;99.20
41944;DHT22;27636;52.610;13.244;2022-09-24T09:10:13;17.90;97.70
41944;DHT22;27636;52.610;13.244;2022-09-24T09:15:20;17.30;99.60
41944;DHT22;27636;52.610;13.244;2022-09-24T09:20:27;17.90;98.60
41944;DHT22;27636;52.610;13.244;2022-09-24T09:25:35;18.50;96.30
41944;DHT22;27636;52.610;13.244;2022-09-24T09:30:41;18.50;95.30
41944;DHT22;27636;52.610;13.244;2022-09-24T09:35:53;18.70;95.00
41944;DHT22;27636;52.610;13.244;2022-09-24T09:41:04;19.20;94.00
41944;DHT22;27636;52.610;13.244;2022-09-24T09:46:13;19.00;91.50
41944;DHT22;27636;52.610;13.244;2022-09-24T09:51:19;18.90;91.20
41944;DHT22;27636;52.610;13.244;2022-09-24T09:56:28;19.10;91.90
41944;DHT22;27636;52.610;13.244;2022-09-24T10:01:34;19.00;90.80
41944;DHT22;27636;52.610;13.244;2022-09-24T10:06:37;19.30;90.70
41944;DHT22;27636;52.610;13.244;2022-09-24T10:11:41;19.90;87.30
41944;DHT22;27636;52.610;13.244;2022-09-24T10:16:48;19.40;85.70
41944;DHT22;27636;52.610;13.244;2022-09-24T10:21:55;19.40;85.40
41944;DHT22;27636;52.610;13.244;2022-09-24T10:27:09;19.10;86.80
41944;DHT22;27636;52.610;13.244;2022-09-24T10:32:16;19.00;90.10
41944;DHT22;27636;52.610;13.244;2022-09-24T10:37:19;19.10;88.40
41944;DHT22;27636;52.610;13.244;2022-09-24T10:42:26;18.60;91.10
41944;DHT22;27636;52.610;13.244;2022-09-24T10:47:35;19.00;91.70
41944;DHT22;27636;52.610;13.244;2022-09-24T10:52:45;18.90;90.60
41944;DHT22;27636;52.610;13.244;2022-09-24T10:57:57;18.70;90.60
41944;DHT22;27636;52.610;13.244;2022-09-24T11:03:28;18.50;91.10
41944;DHT22;27636;52.610;13.244;2022-09-24T11:08:49;18.20;91.90
41944;DHT22;27636;52.610;13.244;2022-09-24T11:14:07;17.70;92.50
41944;DHT22;27636;52.610;13.244;2022-09-24T11:19:27;17.10;93.80
41944;DHT22;27636;52.610;13.244;2022-09-24T11:25:01;16.50;97.30
41944;DHT22;27636;52.610;13.244;2022-09-24T11:30:12;16.80;95.90
41944;DHT22;27636;52.610;13.244;2022-09-24T11:35:27;17.10;97.30
41944;DHT22;27636;52.610;13.244;2022-09-24T11:40:41;17.10;96.50
41944;DHT22;27636;52.610;13.244;2022-09-24T11:45:56;17.70;94.20
41944;DHT22;27636;52.610;13.244;2022-09-24T11:51:17;18.00;93.00
41944;DHT22;27636;52.610;13.244;2022-09-24T11:56:29;18.10;92.30
41944;DHT22;27636;52.610;13.244;2022-09-24T12:01:37;18.40;92.80
41944;DHT22;27636;52.610;13.244;2022-09-24T12:06:46;18.00;92.50
41944;DHT22;27636;52.610;13.244;2022-09-24T12:11:57;18.00;92.00
41944;DHT22;27636;52.610;13.244;2022-09-24T12:17:07;18.10;93.00
41944;DHT22;27636;52.610;13.244;2022-09-24T12:22:16;18.20;93.00
41944;DHT22;27636;52.610;13.244;2022-09-24T12:27:25;18.20;92.40
41944;DHT22;27636;52.610;13.244;2022-09-24T12:32:36;18.20;91.70
41944;DHT22;27636;52.610;13.244;2022-09-24T12:38:03;18.30;92.60
41944;DHT22;27636;52.610;13.244;2022-09-24T12:43:15;18.20;94.60
41944;DHT22;27636;52.610;13.244;2022-09-24T12:48:22;18.30;95.40
41944;DHT22;27636;52.610;13.244;2022-09-24T12:53:32;18.50;93.70
41944;DHT22;27636;52.610;13.244;2022-09-24T12:58:38;18.40;95.90
41944;DHT22;27636;52.610;13.244;2022-09-24T13:03:43;18.50;94.50
41944;DHT22;27636;52.610;13.244;2022-09-24T13:08:49;18.50;93.90
41944;DHT22;27636;52.610;13.244;2022-09-24T13:14:03;18.60;93.60
41944;DHT22;27636;52.610;13.244;2022-09-24T13:19:22;18.70;92.60
41944;DHT22;27636;52.610;13.244;2022-09-24T13:24:28;18.10;93.20
41944;DHT22;27636;52.610;13.244;2022-09-24T13:29:36;18.00;94.30
41944;DHT22;27636;52.610;13.244;2022-09-24T13:34:43;18.40;96.00
41944;DHT22;27636;52.610;13.244;2022-09-24T13:39:53;18.50;97.40
41944;DHT22;27636;52.610;13.244;2022-09-24T13:45:01;18.30;95.30
41944;DHT22;27636;52.610;13.244;2022-09-24T13:50:15;19.00;94.40
41944;DHT22;27636;52.610;13.244;2022-09-24T13:55:22;19.30;94.60
41944;DHT22;27636;52.610;13.244;2022-09-24T14:00:26;18.90;93.70
41944;DHT22;27636;52.610;13.244;2022-09-24T14:05:34;18.80;93.70
41944;DHT22;27636;52.610;13.244;2022-09-24T14:10:40;18.50;96.80
41944;DHT22;27636;52.610;13.244;2022-09-24T14:15:51;18.40;94.90
41944;DHT22;27636;52.610;13.244;2022-09-24T14:21:01;18.60;99.10
41944;DHT22;27636;52.610;13.244;2022-09-24T14:26:07;18.50;95.10
41944;DHT22;27636;52.610;13.244;2022-09-24T14:31:11;18.10;97.20
41944;DHT22;27636;52.610;13.244;2022-09-24T14:36:16;18.40;99.40
41944;DHT22;27636;52.610;13.244;2022-09-24T14:41:21;17.50;99.90
41944;DHT22;27636;52.610;13.244;2022-09-24T14:46:28;17.70;99.90
41944;DHT22;27636;52.610;13.244;2022-09-24T14:51:34;17.10;99.90
41944;DHT22;27636;52.610;13.244;2022-09-24T14:56:37;16.80;99.90
41944;DHT22;27636;52.610;13.244;2022-09-24T15:01:41;16.70;99.90
41944;DHT22;27636;52.610;13.244;2022-09-24T15:06:47;16.30;99.90
41944;DHT22;27636;52.610;13.244;2022-09-24T15:11:50;16.20;99.90
41944;DHT22;27636;52.610;13.244;2022-09-24T15:17:07;16.00;99.90
41944;DHT22;27636;52.610;13.244;2022-09-24T15:22:13;15.80;99.90
41944;DHT22;27636;52.610;13.244;2022-09-24T15:27:20;15.70;99.90
41944;DHT22;27636;52.610;13.244;2022-09-24T15:32:24;15.40;99.90
41944;DHT22;27636;52.610;13.244;2022-09-24T15:37:29;15.30;99.90
41944;DHT22;27636;52.610;13.244;2022-09-24T15:42:32;15.10;99.90
41944;DHT22;27636;52.610;13.244;2022-09-24T15:47:35;14.90;99.90
41944;DHT22;27636;52.610;13.244;2022-09-24T15:52:44;14.70;99.90
41944;DHT22;27636;52.610;13.244;2022-09-24T15:57:48;14.50;99.90
41944;DHT22;27636;52.610;13.244;2022-09-24T16:02:54;14.50;99.90
41944;DHT22;27636;52.610;13.244;2022-09-24T16:07:59;14.40;99.90
41944;DHT22;27636;52.610;13.244;2022-09-24T16:13:02;14.20;99.90
41944;DHT22;27636;52.610;13.244;2022-09-24T16:18:06;14.20;99.90
41944;DHT22;27636;52.610;13.244;2022-09-24T16:23:13;14.20;99.90
41944;DHT22;27636;52.610;13.244;2022-09-24T16:28:17;14.10;99.90
41944;DHT22;27636;52.610;13.244;2022-09-24T16:33:20;14.00;99.90
41944;DHT22;27636;52.610;13.244;2022-09-24T16:38:25;14.00;99.90
41944;DHT22;27636;52.610;13.244;2022-09-24T16:43:28;13.90;99.90
41944;DHT22;27636;52.610;13.244;2022-09-24T16:48:31;13.70;99.90
41944;DHT22;27636;52.610;13.244;2022-09-24T16:53:36;13.50;99.90
41944;DHT22;27636;52.610;13.244;2022-09-24T16:58:39;13.50;99.90
41944;DHT22;27636;52.610;13.244;2022-09-24T17:03:43;13.30;99.90
41944;DHT22;27636;52.610;13.244;2022-09-24T17:08:47;13.10;99.90
41944;DHT22;27636;52.610;13.244;2022-09-24T17:14:09;13.00;99.90
41944;DHT22;27636;52.610;13.244;2022-09-24T17:19:16;12.90;99.90
41944;DHT22;27636;52.610;13.244;2022-09-24T17:24:21;12.80;99.90
41944;DHT22;27636;52.610;13.244;2022-09-24T17:29:24;12.90;99.90
41944;DHT22;27636;52.610;13.244;2022-09-24T17:34:32;12.80;99.90
41944;DHT22;27636;52.610;13.244;2022-09-24T17:39:37;12.80;99.90
41944;DHT22;27636;52.610;13.244;2022-09-24T17:44:40;12.80;99.90
41944;DHT22;27636;52.610;13.244;2022-09-24T17:49:43;12.80;99.90
41944;DHT22;27636;52.610;13.244;2022-09-24T17:54:48;12.80;99.90
41944;DHT22;27636;52.610;13.244;2022-09-24T17:59:51;12.80;99.90
41944;DHT22;27636;52.610;13.244;2022-09-24T18:04:54;12.70;99.90
41944;DHT22;27636;52.610;13.244;2022-09-24T18:09:58;12.70;99.90
41944;DHT22;27636;52.610;13.244;2022-09-24T18:15:01;12.70;99.90
41944;DHT22;27636;52.610;13.244;2022-09-24T18:20:05;12.70;99.90
41944;DHT22;27636;52.610;13.244;2022-09-24T18:25:10;12.60;99.90
41944;DHT22;27636;52.610;13.244;2022-09-24T18:30:13;12.60;99.90
41944;DHT22;27636;52.610;13.244;2022-09-24T18:35:17;12.60;99.90
41944;DHT22;27636;52.610;13.244;2022-09-24T18:40:21;12.60;99.90
41944;DHT22;27636;52.610;13.244;2022-09-24T18:45:24;12.60;99.90
41944;DHT22;27636;52.610;13.244;2022-09-24T18:50:27;12.60;99.90
41944;DHT22;27636;52.610;13.244;2022-09-24T18:55:36;12.60;99.90
41944;DHT22;27636;52.610;13.244;2022-09-24T19:00:40;12.60;99.90
41944;DHT22;27636;52.610;13.244;2022-09-24T19:05:53;12.60;99.90
41944;DHT22;27636;52.610;13.244;2022-09-24T19:11:02;12.70;99.90
41944;DHT22;27636;52.610;13.244;2022-09-24T19:16:12;12.60;99.90
41944;DHT22;27636;52.610;13.244;2022-09-24T19:21:16;12.70;99.90
41944;DHT22;27636;52.610;13.244;2022-09-24T19:26:23;12.70;99.90
41944;DHT22;27636;52.610;13.244;2022-09-24T19:31:28;12.70;99.90
41944;DHT22;27636;52.610;13.244;2022-09-24T19:36:33;12.60;99.90
41944;DHT22;27636;52.610;13.244;2022-09-24T19:41:47;12.50;99.90
41944;DHT22;27636;52.610;13.244;2022-09-24T19:46:54;12.50;99.90
41944;DHT22;27636;52.610;13.244;2022-09-24T19:51:57;12.30;99.90
41944;DHT22;27636;52.610;13.244;2022-09-24T19:57:01;12.30;99.90
41944;DHT22;27636;52.610;13.244;2022-09-24T20:02:04;12.20;99.90
41944;DHT22;27636;52.610;13.244;2022-09-24T20:07:07;12.20;99.90
41944;DHT22;27636;52.610;13.244;2022-09-24T20:12:12;12.30;99.90
41944;DHT22;27636;52.610;13.244;2022-09-24T20:17:18;12.20;99.90
41944;DHT22;27636;52.610;13.244;2022-09-24T20:22:22;12.30;99.90
41944;DHT22;27636;52.610;13.244;2022-09-24T20:27:26;12.20;99.90
41944;DHT22;27636;52.610;13.244;2022-09-24T20:32:48;12.20;99.90
41944;DHT22;27636;52.610;13.244;2022-09-24T20:37:51;12.10;99.90
41944;DHT22;27636;52.610;13.244;2022-09-24T20:42:56;12.10;99.90
41944;DHT22;27636;52.610;13.244;2022-09-24T20:47:59;12.10;99.90
41944;DHT22;27636;52.610;13.244;2022-09-24T20:53:02;12.10;99.90
41944;DHT22;27636;52.610;13.244;2022-09-24T20:58:06;12.00;99.90
41944;DHT22;27636;52.610;13.244;2022-09-24T21:03:10;12.10;99.90
41944;DHT22;27636;52.610;13.244;2022-09-24T21:08:36;12.00;99.90
41944;DHT22;27636;52.610;13.244;2022-09-24T21:13:41;12.00;99.90
41944;DHT22;27636;52.610;13.244;2022-09-24T21:18:47;11.90;99.90
41944;DHT22;27636;52.610;13.244;2022-09-24T21:23:52;12.00;99.90
41944;DHT22;27636;52.610;13.244;2022-09-24T21:28:58;12.00;99.90
41944;DHT22;27636;52.610;13.244;2022-09-24T21:34:03;11.90;99.90
41944;DHT22;27636;52.610;13.244;2022-09-24T21:39:09;11.80;99.90
41944;DHT22;27636;52.610;13.244;2022-09-24T21:44:16;11.80;99.90
41944;DHT22;27636;52.610;13.244;2022-09-24T21:49:19;11.90;99.90
41944;DHT22;27636;52.610;13.244;2022-09-24T21:54:22;11.80;99.90
41944;DHT22;27636;52.610;13.244;2022-09-24T21:59:27;11.80;99.90
41944;DHT22;27636;52.610;13.244;2022-09-24T22:04:48;11.90;99.90
41944;DHT22;27636;52.610;13.244;2022-09-24T22:09:51;11.90;99.90
41944;DHT22;27636;52.610;13.244;2022-09-24T22:14:55;11.90;99.90
41944;DHT22;27636;52.610;13.244;2022-09-24T22:19:58;11.90;99.90
41944;DHT22;27636;52.610;13.244;2022-09-24T22:25:01;11.80;99.90
41944;DHT22;27636;52.610;13.244;2022-09-24T22:30:08;11.80;99.90
41944;DHT22;27636;52.610;13.244;2022-09-24T22:35:12;11.80;99.90
41944;DHT22;27636;52.610;13.244;2022-09-24T22:40:33;11.80;99.90
41944;DHT22;27636;52.610;13.244;2022-09-24T22:45:38;11.90;99.90
41944;DHT22;27636;52.610;13.244;2022-09-24T22:50:41;12.00;99.90
41944;DHT22;27636;52.610;13.244;2022-09-24T22:55:45;11.90;99.90
41944;DHT22;27636;52.610;13.244;2022-09-24T23:00:55;12.00;99.90
41944;DHT22;27636;52.610;13.244;2022-09-24T23:05:58;11.80;99.90
41944;DHT22;27636;52.610;13.244;2022-09-24T23:11:06;11.80;99.90
41944;DHT22;27636;52.610;13.244;2022-09-24T23:16:14;11.90;99.90
41944;DHT22;27636;52.610;13.244;2022-09-24T23:21:18;12.00;99.90
41944;DHT22;27636;52.610;13.244;2022-09-24T23:26:23;11.80;99.90
41944;DHT22;27636;52.610;13.244;2022-09-24T23:31:29;11.80;99.90
41944;DHT22;27636;52.610;13.244;2022-09-24T23:36:33;11.70;99.90
41944;DHT22;27636;52.610;13.244;2022-09-24T23:41:36;11.80;99.90
41944;DHT22;27636;52.610;13.244;2022-09-24T23:46:41;11.70;99.90
41944;DHT22;27636;52.610;13.244;2022-09-24T23:51:44;11.70;99.90
41944;DHT22;27636;52.610;13.244;2022-09-24T23:56:47;11.70;99.90
